Pocasset, Oklahoma
Current Conditions -  °F | °C
As of 9:55 PM on Wednesday 22 Oct 2014 (Local Time) from KRQO Reporting Station
Drizzle Drizzle  
Wind Chill: 16°   Ceiling: 8000
Heat Index: 16°   Visibility: 10mi
Dew Point: 14°   Wind: 3mph
Humidity: 88%   Direction: 230°SW
Pressure: 30.13"   Gusts: NA
Location:  35.19°N, 97.95°W
Report Text: KRQO 230255Z AUTO 23003KT 10SM -DZ SCT043 SCT060 OVC080 16/14 A3013 RMK AO2 P0004
Loading
Personal Weather Stations






























Interactive Weather Map
Tropical Storm Tracking
New forecast layout! Learn more

10-Day Weather Forecast

Advertisements
Track Severe Weather on mobile